Time;durP1;ratioP1;P1;durP2;ratioP2;P2;SDS_P1;SDS_P2;PMS_P1;PMS_P2;Temp;Humidity;BMP_temperature;BMP_pressure;BME280_temperature;BME280_humidity;BME280_pressure;Samples;Min_cycle;Max_cycle;Signal;HPM_P1;HPM_P2
2024/04/01 00:01:21;;;;;;;22.50;6.30;;;;;;;;;;10369700;28;20083;-64
2024/04/01 00:06:19;;;;;;;25.90;5.75;;;;;;;;;;10375170;28;20071;-63
2024/04/01 00:11:18;;;;;;;31.65;5.32;;;;;;;;;;10373739;28;20063;-64
2024/04/01 00:16:16;;;;;;;16.77;4.00;;;;;;;;;;10374110;28;20083;-64
2024/04/01 00:21:13;;;;;;;17.42;5.22;;;;;;;;;;10370184;28;20075;-65
2024/04/01 00:26:11;;;;;;;17.90;5.47;;;;;;;;;;10370367;28;20079;-65
2024/04/01 00:31:09;;;;;;;22.80;6.35;;;;;;;;;;10367965;28;20497;-65
2024/04/01 00:36:07;;;;;;;22.38;4.60;;;;;;;;;;10370353;28;20710;-64
2024/04/01 00:41:05;;;;;;;31.38;6.68;;;;;;;;;;10369327;28;20075;-65
2024/04/01 00:46:02;;;;;;;22.27;6.38;;;;;;;;;;10370328;28;20504;-63
2024/04/01 00:51:01;;;;;;;16.13;5.00;;;;;;;;;;10365266;28;20068;-65
2024/04/01 00:55:59;;;;;;;33.20;6.95;;;;;;;;;;10370395;28;20063;-64
2024/04/01 01:00:58;;;;;;;26.20;5.38;;;;;;;;;;10356191;28;20074;-63
2024/04/01 01:05:55;;;;;;;20.58;4.88;;;;;;;;;;10373715;28;20064;-64
2024/04/01 01:10:54;;;;;;;16.20;5.78;;;;;;;;;;10370986;28;20082;-63
2024/04/01 01:15:51;;;;;;;25.05;5.53;;;;;;;;;;10370788;28;20492;-63
2024/04/01 01:20:49;;;;;;;29.58;6.93;;;;;;;;;;10365611;28;20064;-63
2024/04/01 01:25:48;;;;;;;22.02;5.35;;;;;;;;;;10364833;28;20059;-64
2024/04/01 01:30:45;;;;;;;30.98;6.47;;;;;;;;;;10362641;28;20066;-65
2024/04/01 01:35:44;;;;;;;19.05;5.72;;;;;;;;;;10364533;28;20063;-63
2024/04/01 01:40:41;;;;;;;18.48;4.95;;;;;;;;;;10363270;28;20143;-64
2024/04/01 01:45:40;;;;;;;18.75;5.38;;;;;;;;;;10368104;28;20096;-64
2024/04/01 01:50:38;;;;;;;22.98;5.18;;;;;;;;;;10363836;28;20126;-61
2024/04/01 01:55:35;;;;;;;35.15;6.72;;;;;;;;;;10365370;28;20143;-63
2024/04/01 02:00:32;;;;;;;32.60;6.65;;;;;;;;;;10364698;28;20539;-65
2024/04/01 02:05:31;;;;;;;29.67;6.45;;;;;;;;;;10363859;28;20072;-64
2024/04/01 02:10:29;;;;;;;26.08;7.32;;;;;;;;;;10366497;28;20123;-63
2024/04/01 02:15:26;;;;;;;31.45;5.72;;;;;;;;;;10370627;28;20071;-64
2024/04/01 02:20:24;;;;;;;20.95;5.88;;;;;;;;;;10368488;28;20106;-64
2024/04/01 02:25:23;;;;;;;22.67;6.40;;;;;;;;;;10367004;28;20083;-64
2024/04/01 02:30:22;;;;;;;29.63;6.57;;;;;;;;;;10364357;28;20094;-63
2024/04/01 02:35:19;;;;;;;28.55;6.13;;;;;;;;;;10366649;28;20098;-63
2024/04/01 02:40:17;;;;;;;19.48;5.70;;;;;;;;;;10363686;28;20142;-64
2024/04/01 02:45:16;;;;;;;26.85;5.15;;;;;;;;;;10361270;28;20079;-64
2024/04/01 02:50:13;;;;;;;24.58;6.28;;;;;;;;;;10364218;28;20078;-63
2024/04/01 02:55:10;;;;;;;25.17;5.30;;;;;;;;;;10366583;28;20071;-64
2024/04/01 03:00:15;;;;;;;25.58;5.72;;;;;;;;;;10374579;28;20068;-64
2024/04/01 03:05:14;;;;;;;21.58;4.90;;;;;;;;;;10383275;28;20067;-63
2024/04/01 03:10:12;;;;;;;27.13;6.60;;;;;;;;;;10369853;28;20071;-65
2024/04/01 03:15:10;;;;;;;28.73;6.93;;;;;;;;;;10363643;28;20076;-65
2024/04/01 03:20:10;;;;;;;23.38;5.03;;;;;;;;;;10367693;28;20345;-64
2024/04/01 03:25:09;;;;;;;26.77;6.20;;;;;;;;;;10366025;28;20515;-64
2024/04/01 03:30:07;;;;;;;31.48;6.30;;;;;;;;;;10368106;28;20496;-66
2024/04/01 03:35:05;;;;;;;32.17;7.35;;;;;;;;;;10368564;28;20068;-62
2024/04/01 03:40:02;;;;;;;28.27;6.18;;;;;;;;;;10369222;28;20535;-64
2024/04/01 03:45:01;;;;;;;27.10;6.63;;;;;;;;;;10370757;28;20068;-63
2024/04/01 03:49:58;;;;;;;32.05;6.85;;;;;;;;;;10379855;28;20055;-65
2024/04/01 03:54:56;;;;;;;28.13;6.47;;;;;;;;;;10372462;28;20063;-64
2024/04/01 03:59:53;;;;;;;40.25;7.22;;;;;;;;;;10378236;28;20060;-64
2024/04/01 04:04:52;;;;;;;26.35;5.50;;;;;;;;;;10374786;28;20465;-64
2024/04/01 04:09:51;;;;;;;27.52;7.88;;;;;;;;;;10373202;28;20527;-64
2024/04/01 04:14:48;;;;;;;28.77;7.35;;;;;;;;;;10380575;28;20094;-65
2024/04/01 04:19:46;;;;;;;49.90;8.23;;;;;;;;;;10371445;28;20087;-64
2024/04/01 04:24:45;;;;;;;46.50;8.10;;;;;;;;;;10354244;28;20535;-65
2024/04/01 04:29:42;;;;;;;33.65;7.47;;;;;;;;;;10372956;28;20090;-65
2024/04/01 04:34:40;;;;;;;36.50;7.30;;;;;;;;;;10371389;28;20040;-63
2024/04/01 04:39:37;;;;;;;25.77;6.82;;;;;;;;;;10377809;28;20545;-64
2024/04/01 04:44:36;;;;;;;30.13;5.70;;;;;;;;;;10369598;28;20052;-64
2024/04/01 04:49:33;;;;;;;33.85;8.38;;;;;;;;;;10370113;28;20547;-64
2024/04/01 04:54:31;;;;;;;37.65;7.13;;;;;;;;;;10380422;28;20339;-64
2024/04/01 04:59:28;;;;;;;36.55;7.85;;;;;;;;;;10369647;28;20158;-65
2024/04/01 05:04:27;;;;;;;37.38;9.00;;;;;;;;;;10373136;28;20075;-64
2024/04/01 05:09:24;;;;;;;31.13;7.60;;;;;;;;;;10371120;28;20060;-64
2024/04/01 05:14:22;;;;;;;28.90;7.50;;;;;;;;;;10370078;28;20079;-64
2024/04/01 05:19:20;;;;;;;35.40;7.18;;;;;;;;;;10375226;28;20067;-63
2024/04/01 05:24:19;;;;;;;27.30;6.25;;;;;;;;;;10371950;28;20055;-64
2024/04/01 05:29:16;;;;;;;41.28;9.02;;;;;;;;;;10370209;28;20082;-65
2024/04/01 05:34:14;;;;;;;38.13;8.35;;;;;;;;;;10368003;28;20070;-64
2024/04/01 05:39:11;;;;;;;28.25;7.40;;;;;;;;;;10367953;28;20494;-65
2024/04/01 05:44:11;;;;;;;39.53;8.50;;;;;;;;;;10368333;28;20066;-64
2024/04/01 05:49:08;;;;;;;32.55;7.80;;;;;;;;;;10383088;27;20040;-65
2024/04/01 05:54:06;;;;;;;31.20;10.27;;;;;;;;;;10367631;28;20075;-65
2024/04/01 05:59:03;;;;;;;45.50;8.88;;;;;;;;;;10367904;28;20749;-64
2024/04/01 06:04:02;;;;;;;40.97;9.52;;;;;;;;;;10364211;28;20072;-64
2024/04/01 06:09:00;;;;;;;45.05;9.25;;;;;;;;;;10368490;28;20051;-64
2024/04/01 06:13:57;;;;;;;34.65;9.15;;;;;;;;;;10373303;28;20082;-64
2024/04/01 06:18:55;;;;;;;35.85;8.88;;;;;;;;;;10371595;28;20080;-64
2024/04/01 06:23:57;;;;;;;46.33;8.68;;;;;;;;;;10367668;28;20073;-64
2024/04/01 06:28:56;;;;;;;40.17;9.27;;;;;;;;;;10370105;28;20078;-63
2024/04/01 06:33:53;;;;;;;30.23;7.97;;;;;;;;;;10371971;27;20059;-65
2024/04/01 06:38:51;;;;;;;42.03;8.68;;;;;;;;;;10378963;28;20068;-64
2024/04/01 06:43:50;;;;;;;42.05;9.23;;;;;;;;;;10378235;28;20055;-64
2024/04/01 06:48:47;;;;;;;39.55;8.93;;;;;;;;;;10377567;28;20071;-64
2024/04/01 06:53:45;;;;;;;38.75;8.70;;;;;;;;;;10380708;28;20070;-64
2024/04/01 06:58:42;;;;;;;36.30;8.10;;;;;;;;;;10379887;28;20079;-63
2024/04/01 07:03:41;;;;;;;36.95;8.63;;;;;;;;;;10375806;27;20658;-64
2024/04/01 07:08:39;;;;;;;46.75;9.45;;;;;;;;;;10370782;27;20075;-63
2024/04/01 07:13:36;;;;;;;37.08;8.45;;;;;;;;;;10372255;28;20075;-64
2024/04/01 07:18:35;;;;;;;39.17;9.70;;;;;;;;;;10377099;28;20075;-62
2024/04/01 07:23:34;;;;;;;33.33;8.38;;;;;;;;;;10361179;28;20079;-64
2024/04/01 07:28:32;;;;;;;47.95;8.05;;;;;;;;;;10383624;28;20075;-63
2024/04/01 07:33:29;;;;;;;39.97;8.85;;;;;;;;;;10375789;28;20052;-62
2024/04/01 07:38:26;;;;;;;39.53;8.63;;;;;;;;;;10374620;28;20099;-63
2024/04/01 07:43:26;;;;;;;43.75;8.90;;;;;;;;;;10375004;27;20067;-63
2024/04/01 07:48:23;;;;;;;29.95;8.30;;;;;;;;;;10379043;27;20078;-62
2024/04/01 07:53:20;;;;;;;38.47;8.57;;;;;;;;;;10377316;28;20502;-63
2024/04/01 07:58:18;;;;;;;44.10;8.15;;;;;;;;;;10382490;28;20531;-63
2024/04/01 08:03:17;;;;;;;32.00;7.78;;;;;;;;;;10373149;28;20083;-64
2024/04/01 08:08:14;;;;;;;47.10;8.18;;;;;;;;;;10371373;28;20101;-63
2024/04/01 08:13:12;;;;;;;32.30;9.50;;;;;;;;;;10369912;28;20083;-63
2024/04/01 08:18:09;;;;;;;30.23;8.35;;;;;;;;;;10371015;28;20064;-62
2024/04/01 08:23:08;;;;;;;30.98;8.18;;;;;;;;;;10373930;28;20078;-63
2024/04/01 08:28:06;;;;;;;44.25;8.52;;;;;;;;;;10393563;27;20492;-62
2024/04/01 08:33:03;;;;;;;33.00;7.95;;;;;;;;;;10358084;28;20071;-62
2024/04/01 08:38:01;;;;;;;42.07;8.47;;;;;;;;;;10371186;28;20075;-64
2024/04/01 08:43:03;;;;;;;32.90;8.23;;;;;;;;;;10369138;28;20067;-62
2024/04/01 08:48:03;;;;;;;42.55;8.93;;;;;;;;;;10373276;28;20482;-62
2024/04/01 08:53:06;;;;;;;34.95;8.88;;;;;;;;;;10382068;28;20079;-63
2024/04/01 08:58:05;;;;;;;41.70;7.88;;;;;;;;;;10369872;28;20067;-63
2024/04/01 09:03:03;;;;;;;35.83;10.13;;;;;;;;;;10368386;28;20072;-63
2024/04/01 09:08:00;;;;;;;42.05;9.65;;;;;;;;;;10376015;27;20508;-63
2024/04/01 09:12:59;;;;;;;40.10;7.90;;;;;;;;;;10365863;28;20075;-63
2024/04/01 09:17:58;;;;;;;41.38;9.05;;;;;;;;;;10369568;28;20056;-63
2024/04/01 09:22:56;;;;;;;36.20;8.68;;;;;;;;;;10368180;28;20566;-63
2024/04/01 09:27:53;;;;;;;34.05;9.02;;;;;;;;;;10370515;28;20461;-63
2024/04/01 09:32:51;;;;;;;34.25;8.60;;;;;;;;;;10364456;28;20068;-61
2024/04/01 09:37:49;;;;;;;33.10;10.30;;;;;;;;;;10371909;28;20067;-61
2024/04/01 09:42:47;;;;;;;40.20;9.32;;;;;;;;;;10383514;28;20153;-61
2024/04/01 09:47:47;;;;;;;34.65;9.48;;;;;;;;;;10379299;28;20102;-61
2024/04/01 09:52:45;;;;;;;44.63;9.02;;;;;;;;;;10370570;28;20047;-62
2024/04/01 09:58:13;;;;;;;54.05;19.45;;;;;;;;;;10374341;28;20063;-62
2024/04/01 10:03:28;;;;;;;34.72;8.32;;;;;;;;;;10367961;28;20070;-62
2024/04/01 10:08:47;;;;;;;44.08;8.93;;;;;;;;;;10362329;28;20086;-62
2024/04/01 10:14:05;;;;;;;31.38;8.48;;;;;;;;;;10336827;28;20077;-62
2024/04/01 10:19:24;;;;;;;41.78;7.68;;;;;;;;;;10362806;28;20059;-62
2024/04/01 10:24:39;;;;;;;40.53;8.13;;;;;;;;;;10368135;28;20067;-62
2024/04/01 10:30:03;;;;;;;38.03;8.80;;;;;;;;;;10366332;28;20087;-62
2024/04/01 10:35:10;;;;;;;44.50;9.50;;;;;;;;;;10371504;28;20566;-63
2024/04/01 10:40:20;;;;;;;49.88;9.93;;;;;;;;;;10368852;28;20338;-62
2024/04/01 10:45:32;;;;;;;44.83;8.95;;;;;;;;;;10354005;28;20479;-60
2024/04/01 10:50:42;;;;;;;44.42;9.45;;;;;;;;;;10364701;28;20071;-62
2024/04/01 10:55:53;;;;;;;45.83;8.50;;;;;;;;;;10363387;28;20481;-62
2024/04/01 11:01:08;;;;;;;52.15;9.18;;;;;;;;;;10372196;28;20086;-62
2024/04/01 11:06:20;;;;;;;57.38;11.05;;;;;;;;;;10370254;28;20527;-62
2024/04/01 11:11:26;;;;;;;38.10;10.38;;;;;;;;;;10365039;28;20080;-62
2024/04/01 11:16:26;;;;;;;43.22;9.25;;;;;;;;;;10379560;28;20083;-63
2024/04/01 11:21:26;;;;;;;47.63;9.02;;;;;;;;;;10371101;28;20738;-62
2024/04/01 11:26:40;;;;;;;42.65;9.70;;;;;;;;;;10373958;28;20079;-63
2024/04/01 11:31:40;;;;;;;40.45;9.07;;;;;;;;;;10374208;28;20063;-62
2024/04/01 11:36:41;;;;;;;42.15;9.32;;;;;;;;;;10371168;28;20101;-62
2024/04/01 11:41:42;;;;;;;31.25;7.38;;;;;;;;;;10374105;28;20071;-63
2024/04/01 11:46:41;;;;;;;34.72;9.80;;;;;;;;;;10375566;28;20071;-63
2024/04/01 11:51:39;;;;;;;35.60;9.45;;;;;;;;;;10368846;28;20067;-63
2024/04/01 11:56:38;;;;;;;69.88;18.63;;;;;;;;;;10372696;28;20160;-62
2024/04/01 12:01:38;;;;;;;39.25;10.18;;;;;;;;;;10373997;28;20112;-62
2024/04/01 12:06:37;;;;;;;48.95;11.73;;;;;;;;;;10370681;28;20074;-63
2024/04/01 12:11:34;;;;;;;44.47;11.45;;;;;;;;;;10370865;28;20067;-63
2024/04/01 12:16:34;;;;;;;43.17;10.18;;;;;;;;;;10368931;28;20079;-62
2024/04/01 12:21:33;;;;;;;56.67;9.98;;;;;;;;;;10375757;28;20083;-63
2024/04/01 12:26:36;;;;;;;40.92;9.75;;;;;;;;;;10378784;28;20058;-63
2024/04/01 12:31:37;;;;;;;54.05;10.75;;;;;;;;;;10366343;28;20059;-64
2024/04/01 12:36:37;;;;;;;54.28;9.73;;;;;;;;;;10365918;28;20071;-62
2024/04/01 12:41:37;;;;;;;55.65;10.00;;;;;;;;;;10365353;28;20126;-62
2024/04/01 12:46:37;;;;;;;35.08;8.82;;;;;;;;;;10367897;28;20064;-62
2024/04/01 12:51:36;;;;;;;55.55;9.82;;;;;;;;;;10367725;28;20062;-62
2024/04/01 12:56:38;;;;;;;36.33;9.57;;;;;;;;;;10367596;28;20060;-62
2024/04/01 13:01:42;;;;;;;39.50;10.35;;;;;;;;;;10368414;28;20531;-62
2024/04/01 13:06:48;;;;;;;40.17;9.48;;;;;;;;;;10372317;28;20472;-62
2024/04/01 13:11:53;;;;;;;45.70;9.82;;;;;;;;;;10368653;28;20056;-62
2024/04/01 13:16:55;;;;;;;45.03;10.27;;;;;;;;;;10350255;28;20036;-63
2024/04/01 13:21:58;;;;;;;40.53;10.15;;;;;;;;;;10371349;28;20078;-62
2024/04/01 13:27:00;;;;;;;52.72;12.65;;;;;;;;;;10369841;28;20094;-62
2024/04/01 13:32:00;;;;;;;46.38;8.52;;;;;;;;;;10377569;28;20075;-61
2024/04/01 13:37:11;;;;;;;43.72;10.55;;;;;;;;;;10370066;28;20074;-62
2024/04/01 13:42:11;;;;;;;44.42;11.68;;;;;;;;;;10367355;28;20068;-63
2024/04/01 13:47:17;;;;;;;44.40;8.63;;;;;;;;;;10364864;28;20082;-62
2024/04/01 13:52:23;;;;;;;44.15;8.93;;;;;;;;;;10369620;28;20064;-62
2024/04/01 13:57:30;;;;;;;39.83;10.70;;;;;;;;;;10370349;28;20071;-62
2024/04/01 14:02:36;;;;;;;47.22;11.20;;;;;;;;;;10383041;27;20063;-62
2024/04/01 14:07:41;;;;;;;46.80;9.90;;;;;;;;;;10369263;28;20060;-62
2024/04/01 14:12:46;;;;;;;43.08;10.65;;;;;;;;;;10367126;28;20079;-62
2024/04/01 14:17:52;;;;;;;53.80;11.85;;;;;;;;;;10371002;28;20075;-62
2024/04/01 14:22:51;;;;;;;47.58;9.85;;;;;;;;;;10365782;28;20071;-62
2024/04/01 14:27:49;;;;;;;42.85;10.40;;;;;;;;;;10367861;28;20084;-62
2024/04/01 14:32:46;;;;;;;46.85;12.32;;;;;;;;;;10369220;28;20539;-62
2024/04/01 14:37:43;;;;;;;47.00;9.75;;;;;;;;;;10365363;28;20064;-61
2024/04/01 14:42:42;;;;;;;49.67;10.65;;;;;;;;;;10362051;28;20531;-61
2024/04/01 14:47:40;;;;;;;40.72;9.77;;;;;;;;;;10361488;28;20064;-61
2024/04/01 14:52:37;;;;;;;51.55;12.15;;;;;;;;;;10372640;28;20082;-61
2024/04/01 14:57:35;;;;;;;47.42;13.20;;;;;;;;;;10373490;28;20066;-62
2024/04/01 15:02:34;;;;;;;40.83;11.02;;;;;;;;;;10375179;28;20484;-61
2024/04/01 15:07:37;;;;;;;50.28;10.98;;;;;;;;;;10373087;28;20086;-62
2024/04/01 15:12:36;;;;;;;42.53;12.33;;;;;;;;;;10376055;28;20071;-62
2024/04/01 15:17:35;;;;;;;53.30;11.05;;;;;;;;;;10374719;28;20056;-62
2024/04/01 15:22:33;;;;;;;53.08;10.02;;;;;;;;;;10372013;28;20488;-63
2024/04/01 15:27:30;;;;;;;45.22;10.30;;;;;;;;;;10373647;28;20067;-62
2024/04/01 15:32:31;;;;;;;48.67;12.98;;;;;;;;;;10385212;27;20076;-62
2024/04/01 15:37:31;;;;;;;53.33;9.45;;;;;;;;;;10370666;28;20740;-62
2024/04/01 15:42:29;;;;;;;48.00;10.63;;;;;;;;;;10373195;28;20071;-62
2024/04/01 15:47:26;;;;;;;42.05;10.15;;;;;;;;;;10373577;28;20066;-61
2024/04/01 15:52:24;;;;;;;51.33;10.40;;;;;;;;;;10371311;28;20488;-63
2024/04/01 15:57:24;;;;;;;43.97;9.93;;;;;;;;;;10380548;28;20075;-62
2024/04/01 16:02:22;;;;;;;44.75;10.45;;;;;;;;;;10371252;28;20071;-63
2024/04/01 16:07:20;;;;;;;40.05;10.40;;;;;;;;;;10371358;28;20071;-62
2024/04/01 16:12:23;;;;;;;53.60;11.32;;;;;;;;;;10387536;27;20079;-62
2024/04/01 16:17:22;;;;;;;54.63;10.80;;;;;;;;;;10378741;28;20451;-62
2024/04/01 16:22:21;;;;;;;52.78;10.82;;;;;;;;;;10378575;28;20456;-63
2024/04/01 16:27:21;;;;;;;36.15;9.57;;;;;;;;;;10371420;28;20063;-62
2024/04/01 16:32:20;;;;;;;38.83;10.85;;;;;;;;;;10371006;28;20059;-62
2024/04/01 16:37:18;;;;;;;45.97;10.55;;;;;;;;;;10368552;28;20513;-62
2024/04/01 16:42:17;;;;;;;46.47;9.18;;;;;;;;;;10371325;28;20497;-62
2024/04/01 16:47:14;;;;;;;44.83;9.40;;;;;;;;;;10369242;28;20071;-62
2024/04/01 16:52:13;;;;;;;45.63;9.70;;;;;;;;;;10370181;28;20082;-63
2024/04/01 16:57:10;;;;;;;49.17;8.10;;;;;;;;;;10369842;28;20075;-62
2024/04/01 17:02:11;;;;;;;45.10;10.80;;;;;;;;;;10369550;28;20060;-62
2024/04/01 17:07:10;;;;;;;44.00;9.23;;;;;;;;;;10369465;28;20078;-63
2024/04/01 17:12:10;;;;;;;39.53;9.82;;;;;;;;;;10369376;28;20084;-62
2024/04/01 17:17:07;;;;;;;48.22;12.13;;;;;;;;;;10367645;28;20516;-62
2024/04/01 17:22:06;;;;;;;44.72;10.63;;;;;;;;;;10369524;28;20398;-63
2024/04/01 17:27:04;;;;;;;52.45;11.73;;;;;;;;;;10375965;28;20079;-62
2024/04/01 17:32:02;;;;;;;38.92;10.60;;;;;;;;;;10367541;28;20473;-62
2024/04/01 17:37:01;;;;;;;55.97;13.13;;;;;;;;;;10367284;28;20071;-62
2024/04/01 17:41:59;;;;;;;46.92;11.90;;;;;;;;;;10376828;28;20504;-62
2024/04/01 17:46:56;;;;;;;67.85;11.80;;;;;;;;;;10377107;28;20475;-62
2024/04/01 17:51:55;;;;;;;50.63;11.38;;;;;;;;;;10367055;28;20516;-62
2024/04/01 17:56:53;;;;;;;57.53;10.93;;;;;;;;;;10368181;28;20156;-63
2024/04/01 18:01:51;;;;;;;63.03;12.95;;;;;;;;;;10348377;28;20188;-62
2024/04/01 18:06:49;;;;;;;52.55;11.80;;;;;;;;;;10363497;27;20086;-62
2024/04/01 18:11:47;;;;;;;60.47;13.85;;;;;;;;;;10369231;28;20094;-63
2024/04/01 18:16:46;;;;;;;59.97;12.52;;;;;;;;;;10364596;28;20083;-63
2024/04/01 18:21:43;;;;;;;52.85;12.43;;;;;;;;;;10382762;27;20161;-63
2024/04/01 18:26:41;;;;;;;55.05;11.70;;;;;;;;;;10372971;28;20067;-63
2024/04/01 18:31:44;;;;;;;60.85;13.52;;;;;;;;;;10363411;28;20155;-62
2024/04/01 18:36:42;;;;;;;59.53;13.47;;;;;;;;;;10364591;28;20071;-61
2024/04/01 18:41:41;;;;;;;61.83;13.23;;;;;;;;;;10365745;28;20483;-62
2024/04/01 18:46:40;;;;;;;56.33;11.85;;;;;;;;;;10364364;28;20071;-64
2024/04/01 18:51:38;;;;;;;57.80;11.82;;;;;;;;;;10362949;28;20063;-63
2024/04/01 18:56:35;;;;;;;57.50;13.38;;;;;;;;;;10368289;28;20060;-63
2024/04/01 19:01:33;;;;;;;65.47;12.00;;;;;;;;;;10365134;28;20068;-63
2024/04/01 19:06:34;;;;;;;59.90;13.38;;;;;;;;;;10366123;28;20068;-63
2024/04/01 19:11:32;;;;;;;61.28;10.85;;;;;;;;;;10380720;28;20066;-62
2024/04/01 19:16:29;;;;;;;64.82;12.07;;;;;;;;;;10380856;28;20075;-62
2024/04/01 19:21:27;;;;;;;45.75;11.00;;;;;;;;;;10368308;28;20063;-61
2024/04/01 19:26:26;;;;;;;53.63;12.07;;;;;;;;;;10367604;28;20067;-63
2024/04/01 19:31:26;;;;;;;62.22;12.07;;;;;;;;;;10370435;28;20059;-64
2024/04/01 19:36:24;;;;;;;52.35;11.35;;;;;;;;;;10382584;28;20090;-62
2024/04/01 19:41:22;;;;;;;62.05;13.13;;;;;;;;;;10380871;28;20079;-63
2024/04/01 19:46:21;;;;;;;43.47;10.93;;;;;;;;;;10375062;28;20067;-63
2024/04/01 19:51:18;;;;;;;50.35;12.82;;;;;;;;;;10382781;28;20091;-61
2024/04/01 19:56:17;;;;;;;53.65;10.85;;;;;;;;;;10363690;28;20068;-62
2024/04/01 20:01:25;;;;;;;59.70;11.98;;;;;;;;;;10371605;28;20063;-62
2024/04/01 20:06:24;;;;;;;47.00;10.02;;;;;;;;;;10373961;28;20079;-62
2024/04/01 20:11:22;;;;;;;47.60;13.02;;;;;;;;;;10371102;28;20079;-63
2024/04/01 20:16:20;;;;;;;41.83;10.77;;;;;;;;;;10384950;28;20090;-63
2024/04/01 20:21:17;;;;;;;47.60;11.20;;;;;;;;;;10378124;28;20072;-63
2024/04/01 20:26:16;;;;;;;45.40;12.57;;;;;;;;;;10377082;28;20059;-62
2024/04/01 20:31:18;;;;;;;38.40;9.50;;;;;;;;;;10360728;28;20094;-62
2024/04/01 20:36:18;;;;;;;30.80;7.70;;;;;;;;;;10371161;28;20063;-62
2024/04/01 20:41:20;;;;;;;58.10;13.55;;;;;;;;;;10370193;28;20082;-62
2024/04/01 20:46:18;;;;;;;43.90;10.05;;;;;;;;;;10361586;28;20516;-62
2024/04/01 20:51:16;;;;;;;39.95;8.95;;;;;;;;;;10369345;28;20075;-61
2024/04/01 20:56:25;;;;;;;38.78;9.35;;;;;;;;;;10368909;28;20070;-61
2024/04/01 21:01:22;;;;;;;41.30;8.38;;;;;;;;;;10367982;28;20079;-63
2024/04/01 21:06:20;;;;;;;40.08;8.95;;;;;;;;;;10372178;28;20082;-63
2024/04/01 21:11:18;;;;;;;30.27;7.90;;;;;;;;;;10368377;28;20505;-63
2024/04/01 21:16:17;;;;;;;37.00;8.60;;;;;;;;;;10369007;28;20088;-62
2024/04/01 21:21:14;;;;;;;33.45;7.70;;;;;;;;;;10366731;28;20100;-63
2024/04/01 21:26:12;;;;;;;42.35;9.15;;;;;;;;;;10369132;28;20492;-63
2024/04/01 21:31:10;;;;;;;35.00;9.43;;;;;;;;;;10368817;28;20551;-64
2024/04/01 21:36:10;;;;;;;38.35;7.72;;;;;;;;;;10354005;28;20048;-64
2024/04/01 21:41:07;;;;;;;33.63;7.60;;;;;;;;;;10367354;28;20075;-63
2024/04/01 21:46:05;;;;;;;36.53;7.60;;;;;;;;;;10369065;28;20079;-63
2024/04/01 21:51:02;;;;;;;34.35;7.97;;;;;;;;;;10365105;28;20075;-62
2024/04/01 21:56:01;;;;;;;25.80;7.93;;;;;;;;;;10368721;28;20067;-62
2024/04/01 22:00:59;;;;;;;33.88;8.30;;;;;;;;;;10354220;28;20054;-62
2024/04/01 22:05:56;;;;;;;36.35;8.75;;;;;;;;;;10367069;28;20116;-64
2024/04/01 22:10:54;;;;;;;29.40;7.22;;;;;;;;;;10364616;28;20492;-62
2024/04/01 22:15:53;;;;;;;37.15;8.25;;;;;;;;;;10368468;28;20078;-63
2024/04/01 22:20:50;;;;;;;25.67;7.78;;;;;;;;;;10375884;28;20528;-62
2024/04/01 22:25:48;;;;;;;41.60;8.48;;;;;;;;;;10359455;28;20079;-62
2024/04/01 22:30:45;;;;;;;34.92;8.30;;;;;;;;;;10367105;28;20090;-62
2024/04/01 22:35:44;;;;;;;42.35;8.65;;;;;;;;;;10361694;28;20063;-61
2024/04/01 22:40:42;;;;;;;31.95;7.95;;;;;;;;;;10363404;28;20153;-62
2024/04/01 22:45:39;;;;;;;29.02;8.52;;;;;;;;;;10363760;28;20087;-63
2024/04/01 22:50:37;;;;;;;28.17;6.75;;;;;;;;;;10361542;28;20055;-63
2024/04/01 22:55:36;;;;;;;38.35;7.45;;;;;;;;;;10364791;28;20075;-62
2024/04/01 23:00:33;;;;;;;33.72;8.30;;;;;;;;;;10367375;28;20064;-62
2024/04/01 23:05:31;;;;;;;31.45;7.60;;;;;;;;;;10367156;28;20084;-62
2024/04/01 23:10:31;;;;;;;33.90;8.07;;;;;;;;;;10366635;28;20068;-62
2024/04/01 23:15:30;;;;;;;34.35;7.63;;;;;;;;;;10372911;28;20083;-62
2024/04/01 23:20:27;;;;;;;27.10;8.02;;;;;;;;;;10384831;28;20076;-62
2024/04/01 23:25:25;;;;;;;33.22;7.82;;;;;;;;;;10372698;28;20082;-62
2024/04/01 23:30:22;;;;;;;33.38;7.40;;;;;;;;;;10371937;28;20048;-63
2024/04/01 23:35:21;;;;;;;37.40;7.63;;;;;;;;;;10377437;28;20082;-62
2024/04/01 23:40:19;;;;;;;31.45;7.72;;;;;;;;;;10370976;28;20071;-63
2024/04/01 23:45:16;;;;;;;29.48;7.05;;;;;;;;;;10375553;28;20074;-62
2024/04/01 23:50:14;;;;;;;33.78;7.65;;;;;;;;;;10374087;28;20489;-62
2024/04/01 23:55:13;;;;;;;28.52;8.48;;;;;;;;;;10372708;28;20079;-62
